createdAt,value
2023-04-14T00:01:36.440Z,86.79
2023-04-14T00:04:06.039Z,87.38
2023-04-14T00:06:34.015Z,87.18
2023-04-14T00:09:02.108Z,87.15
2023-04-14T00:11:30.211Z,86.69
2023-04-14T00:13:58.370Z,86.78
2023-04-14T00:16:26.209Z,88.74
2023-04-14T00:18:54.135Z,88.63
2023-04-14T00:21:23.361Z,88.81
2023-04-14T00:23:51.825Z,88.04
2023-04-14T00:26:19.774Z,87.36
2023-04-14T00:28:47.741Z,87.67
2023-04-14T00:31:17.335Z,87.01
2023-04-14T00:33:45.263Z,87.95
2023-04-14T00:36:13.087Z,88.43
2023-04-14T00:38:42.294Z,87.26
2023-04-14T00:41:10.182Z,86.66
2023-04-14T00:43:38.096Z,87.37
2023-04-14T00:46:07.009Z,89.17
2023-04-14T00:48:35.691Z,88.67
2023-04-14T00:51:04.834Z,88.96
2023-04-14T00:53:33.299Z,89.69
2023-04-14T00:56:02.667Z,89.92
2023-04-14T00:58:31.581Z,90.21
2023-04-14T01:00:59.511Z,89.01
2023-04-14T01:03:27.620Z,88.71
2023-04-14T01:05:56.369Z,89.82
2023-04-14T01:08:25.043Z,91.19
2023-04-14T01:11:03.011Z,92.04
2023-04-14T01:13:42.197Z,92.95
2023-04-14T01:16:19.060Z,94.35
2023-04-14T01:18:54.592Z,93.40
2023-04-14T01:21:29.641Z,91.87
2023-04-14T01:24:14.903Z,90.18
2023-04-14T01:26:46.982Z,91.94
2023-04-14T01:29:38.041Z,92.41
2023-04-14T01:32:10.588Z,92.88
2023-04-14T01:34:44.740Z,93.48
2023-04-14T01:37:16.768Z,93.23
2023-04-14T01:39:51.110Z,92.64
2023-04-14T01:42:24.302Z,93.93
2023-04-14T01:44:58.215Z,92.95
2023-04-14T01:47:29.921Z,96.97
2023-04-14T01:50:02.107Z,98.40
2023-04-14T01:52:32.508Z,97.58
2023-04-14T01:55:05.809Z,95.98
2023-04-14T01:57:36.947Z,93.27
2023-04-14T02:00:08.882Z,91.89
2023-04-14T02:02:45.364Z,91.21
2023-04-14T02:05:14.471Z,90.81
2023-04-14T02:07:46.995Z,91.12
2023-04-14T02:10:17.251Z,91.70
2023-04-14T02:12:48.337Z,91.61
2023-04-14T02:15:18.755Z,90.64
2023-04-14T02:17:50.421Z,88.56
2023-04-14T02:20:19.783Z,91.65
2023-04-14T02:22:48.993Z,93.19
2023-04-14T02:25:17.413Z,92.80
2023-04-14T02:27:51.095Z,91.47
2023-04-14T02:30:25.762Z,89.92
2023-04-14T02:32:58.856Z,88.08
2023-04-14T02:35:29.376Z,88.73
2023-04-14T02:38:08.286Z,88.38
2023-04-14T02:40:40.348Z,88.45
2023-04-14T02:43:14.922Z,87.91
2023-04-14T02:45:49.040Z,87.72
2023-04-14T02:48:24.878Z,87.34
2023-04-14T02:50:55.912Z,86.66
2023-04-14T02:53:27.933Z,85.57
2023-04-14T02:56:09.244Z,86.24
2023-04-14T02:58:41.864Z,87.74
2023-04-14T03:01:10.923Z,88.61
2023-04-14T03:03:40.632Z,89.68
2023-04-14T03:06:15.522Z,89.25
2023-04-14T03:08:45.048Z,88.83
2023-04-14T03:11:15.556Z,87.85
2023-04-14T03:13:46.100Z,87.33
2023-04-14T03:16:15.114Z,86.38
2023-04-14T03:18:45.367Z,86.73
2023-04-14T03:21:16.656Z,86.90
2023-04-14T03:23:46.113Z,86.21
2023-04-14T03:26:19.392Z,86.21
2023-04-14T03:28:48.654Z,85.78
2023-04-14T03:31:19.685Z,85.01
2023-04-14T03:33:57.335Z,86.24
2023-04-14T03:36:33.022Z,86.31
2023-04-14T03:39:03.425Z,86.26
2023-04-14T03:41:37.814Z,86.08
2023-04-14T03:44:10.809Z,85.44
2023-04-14T03:46:38.770Z,85.04
2023-04-14T03:49:11.382Z,85.12
2023-04-14T03:51:42.793Z,85.66
2023-04-14T03:54:12.627Z,85.29
2023-04-14T03:56:41.377Z,85.32
2023-04-14T03:59:15.375Z,85.06
2023-04-14T04:01:46.754Z,84.97
2023-04-14T04:04:16.804Z,86.67
2023-04-14T04:06:45.085Z,87.77
2023-04-14T04:09:15.860Z,88.25
2023-04-14T04:11:47.894Z,88.05
2023-04-14T04:14:19.981Z,89.04
2023-04-14T04:16:49.604Z,88.75
2023-04-14T04:19:21.764Z,87.31
2023-04-14T04:21:52.610Z,87.58
2023-04-14T04:24:24.482Z,87.98
2023-04-14T04:26:54.377Z,87.28
2023-04-14T04:29:23.586Z,87.28
2023-04-14T04:31:53.831Z,86.77
2023-04-14T04:34:26.302Z,86.09
2023-04-14T04:36:55.438Z,85.56
2023-04-14T04:39:23.249Z,85.04
2023-04-14T04:41:51.989Z,84.44
2023-04-14T04:44:20.648Z,84.33
2023-04-14T04:46:54.272Z,84.15
2023-04-14T04:49:27.753Z,84.32
2023-04-14T04:51:57.585Z,85.91
2023-04-14T04:54:27.100Z,87.72
2023-04-14T04:56:55.289Z,86.49
2023-04-14T04:59:23.127Z,86.42
2023-04-14T05:01:51.258Z,87.32
2023-04-14T05:04:19.553Z,85.95
2023-04-14T05:06:49.043Z,87.82
2023-04-14T05:09:17.050Z,88.28
2023-04-14T05:11:45.174Z,87.79
2023-04-14T05:14:13.037Z,86.29
2023-04-14T05:16:41.007Z,87.48
2023-04-14T05:19:08.850Z,86.22
2023-04-14T05:21:36.814Z,87.90
2023-04-14T05:24:09.382Z,88.36
2023-04-14T05:26:57.770Z,90.42
2023-04-14T05:29:25.419Z,91.20
2023-04-14T05:31:53.473Z,89.56
2023-04-14T05:34:22.531Z,89.25
2023-04-14T05:36:50.881Z,88.08
2023-04-14T05:39:20.244Z,87.73
2023-04-14T05:41:48.209Z,86.37
2023-04-14T05:44:16.190Z,86.36
2023-04-14T05:46:44.088Z,85.90
2023-04-14T05:49:12.220Z,85.39
2023-04-14T05:51:40.735Z,84.79
2023-04-14T05:54:08.569Z,84.17
2023-04-14T05:56:38.331Z,83.19
2023-04-14T05:59:06.233Z,82.48
2023-04-14T06:01:34.510Z,82.24
2023-04-14T06:04:05.106Z,82.43
2023-04-14T06:06:33.540Z,82.66
2023-04-14T06:09:01.771Z,82.25
2023-04-14T06:11:29.884Z,82.17
2023-04-14T06:14:01.240Z,81.66
2023-04-14T06:16:29.255Z,81.98
2023-04-14T06:18:57.179Z,82.02
2023-04-14T06:21:27.324Z,83.79
2023-04-14T06:23:55.350Z,82.73
2023-04-14T06:26:23.329Z,82.08
2023-04-14T06:28:51.234Z,80.23
2023-04-14T06:31:20.880Z,78.97
2023-04-14T06:33:48.827Z,79.01
2023-04-14T06:36:18.196Z,78.17
2023-04-14T06:38:46.191Z,77.12
2023-04-14T06:41:14.204Z,79.34
2023-04-14T06:43:42.842Z,80.42
2023-04-14T06:46:10.958Z,79.54
2023-04-14T06:48:40.239Z,77.85
2023-04-14T06:51:10.592Z,78.38
2023-04-14T06:53:39.542Z,78.76
2023-04-14T06:56:08.411Z,79.00
2023-04-14T06:58:36.724Z,78.49
2023-04-14T07:01:05.256Z,76.49
2023-04-14T07:03:34.543Z,76.86
2023-04-14T07:06:09.231Z,76.71
2023-04-14T07:08:37.827Z,74.91
2023-04-14T07:11:08.635Z,71.14
2023-04-14T07:13:36.726Z,73.14
2023-04-14T07:16:06.383Z,72.29
2023-04-14T07:18:35.206Z,72.07
2023-04-14T07:21:04.139Z,71.17
2023-04-14T07:23:35.772Z,71.82
2023-04-14T07:26:09.468Z,70.83
2023-04-14T07:28:38.339Z,70.71
2023-04-14T07:31:11.903Z,70.60
2023-04-14T07:33:40.801Z,68.08
2023-04-14T07:36:11.601Z,68.48
2023-04-14T07:38:49.634Z,68.90
2023-04-14T07:41:38.642Z,68.05
2023-04-14T07:44:25.039Z,65.63
2023-04-14T07:46:59.903Z,63.18
2023-04-14T07:49:35.113Z,63.77
2023-04-14T07:52:04.767Z,60.50
2023-04-14T07:54:36.106Z,60.46
2023-04-14T07:57:04.538Z,59.73
2023-04-14T07:59:35.992Z,59.60
2023-04-14T08:02:15.770Z,57.24
2023-04-14T08:05:13.505Z,58.25
2023-04-14T08:07:43.221Z,57.80
2023-04-14T08:10:14.188Z,55.47
2023-04-14T08:12:45.805Z,56.83
2023-04-14T08:15:20.487Z,56.97
2023-04-14T08:17:52.666Z,55.81
2023-04-14T08:20:23.242Z,54.89
2023-04-14T08:22:52.169Z,54.40
2023-04-14T08:25:22.330Z,54.55
2023-04-14T08:27:51.338Z,54.35
2023-04-14T08:30:23.715Z,52.28
2023-04-14T08:32:53.306Z,51.74
2023-04-14T08:35:37.566Z,50.50
2023-04-14T08:38:09.505Z,50.42
2023-04-14T08:40:41.029Z,51.45
2023-04-14T08:43:13.837Z,50.87
2023-04-14T08:45:44.645Z,51.62
2023-04-14T08:48:17.161Z,50.54
2023-04-14T08:50:56.810Z,49.63
2023-04-14T08:53:27.538Z,50.90
2023-04-14T08:55:59.788Z,49.84
2023-04-14T08:58:28.251Z,51.65
2023-04-14T09:00:59.176Z,52.44
2023-04-14T09:03:29.661Z,52.17
2023-04-14T09:06:01.941Z,49.75
2023-04-14T09:08:34.200Z,49.56
2023-04-14T09:11:05.807Z,45.94
2023-04-14T09:13:36.045Z,47.46
2023-04-14T09:16:06.613Z,49.18
2023-04-14T09:18:36.541Z,46.68
2023-04-14T09:21:30.313Z,49.51
2023-04-14T09:23:56.056Z,49.25
2023-04-14T09:26:26.990Z,47.39
2023-04-14T09:28:54.856Z,46.90
2023-04-14T09:31:24.090Z,48.49
2023-04-14T09:33:53.584Z,51.33
2023-04-14T09:36:23.676Z,51.84
2023-04-14T09:38:53.461Z,52.35
2023-04-14T09:41:23.943Z,48.28
2023-04-14T09:43:54.878Z,48.43
2023-04-14T09:46:23.064Z,47.61
2023-04-14T09:48:52.562Z,48.34
2023-04-14T09:51:23.971Z,46.18
2023-04-14T09:53:56.000Z,45.90
2023-04-14T09:56:29.326Z,46.91
2023-04-14T09:59:01.089Z,46.85
2023-04-14T10:01:32.043Z,48.42
2023-04-14T10:04:01.623Z,46.92
2023-04-14T10:06:31.294Z,48.82
2023-04-14T10:09:00.157Z,46.21
2023-04-14T10:11:35.169Z,49.38
2023-04-14T10:14:06.370Z,49.76
2023-04-14T10:16:35.173Z,46.66
2023-04-14T10:19:03.832Z,46.90
2023-04-14T10:21:32.808Z,47.44
2023-04-14T10:24:01.725Z,46.05
2023-04-14T10:26:30.100Z,46.17
2023-04-14T10:28:58.184Z,42.33
2023-04-14T10:31:33.863Z,44.86
2023-04-14T10:34:08.645Z,45.68
2023-04-14T10:36:37.246Z,46.49
2023-04-14T10:39:07.099Z,48.18
2023-04-14T10:41:47.437Z,45.81
2023-04-14T10:44:27.187Z,45.63
2023-04-14T10:46:57.996Z,44.22
2023-04-14T10:49:31.712Z,43.61
2023-04-14T10:52:02.074Z,42.89
2023-04-14T10:54:48.953Z,41.71
2023-04-14T10:57:18.564Z,44.92
2023-04-14T10:59:47.477Z,44.85
2023-04-14T11:02:28.093Z,44.14
2023-04-14T11:05:06.095Z,44.57
2023-04-14T11:07:40.306Z,44.04
2023-04-14T11:10:29.781Z,43.65
2023-04-14T11:13:04.209Z,42.26
2023-04-14T11:15:48.291Z,40.53
2023-04-14T11:18:18.940Z,41.87
2023-04-14T11:20:47.298Z,39.01
2023-04-14T11:23:16.499Z,39.32
2023-04-14T11:25:45.671Z,41.48
2023-04-14T11:28:13.682Z,41.83
2023-04-14T11:30:43.056Z,43.27
2023-04-14T11:33:11.115Z,43.40
2023-04-14T11:35:44.475Z,41.64
2023-04-14T11:38:16.184Z,39.16
2023-04-14T11:40:50.993Z,39.75
2023-04-14T11:43:21.456Z,40.38
2023-04-14T11:45:52.711Z,39.64
2023-04-14T11:48:22.043Z,37.18
2023-04-14T11:50:53.080Z,36.44
2023-04-14T11:53:21.977Z,36.35
2023-04-14T11:55:51.979Z,37.73
2023-04-14T11:58:23.746Z,35.48
2023-04-14T12:00:54.328Z,35.98
2023-04-14T12:03:28.579Z,38.35
2023-04-14T12:06:00.677Z,39.31
2023-04-14T12:08:31.517Z,41.04
2023-04-14T12:11:00.090Z,39.92
2023-04-14T12:13:29.294Z,38.28
2023-04-14T12:15:58.675Z,37.69
2023-04-14T12:18:30.202Z,36.96
2023-04-14T12:21:03.977Z,36.67
2023-04-14T12:23:36.154Z,35.14
2023-04-14T12:26:04.478Z,36.12
2023-04-14T12:28:34.915Z,35.71
2023-04-14T12:31:04.981Z,35.03
2023-04-14T12:33:33.978Z,35.84
2023-04-14T12:36:08.193Z,35.10
2023-04-14T12:38:37.497Z,32.81
2023-04-14T12:41:06.243Z,32.86
2023-04-14T12:43:36.182Z,35.58
2023-04-14T12:46:06.359Z,36.98
2023-04-14T12:48:43.960Z,38.40
2023-04-14T12:51:17.506Z,36.10
2023-04-14T12:53:48.093Z,34.70
2023-04-14T12:56:19.444Z,36.47
2023-04-14T12:58:49.539Z,34.89
2023-04-14T13:01:19.325Z,35.14
2023-04-14T13:03:50.393Z,33.33
2023-04-14T13:06:22.020Z,33.42
2023-04-14T13:08:56.373Z,32.20
2023-04-14T13:11:26.427Z,32.06
2023-04-14T13:13:54.918Z,31.13
2023-04-14T13:16:26.978Z,33.61
2023-04-14T13:18:55.608Z,33.80
2023-04-14T13:21:24.905Z,33.68
2023-04-14T13:23:52.953Z,34.52
2023-04-14T13:26:20.828Z,33.98
2023-04-14T13:28:50.429Z,35.03
2023-04-14T13:31:19.160Z,33.74
2023-04-14T13:33:47.220Z,32.84
2023-04-14T13:36:15.151Z,33.68
2023-04-14T13:38:44.497Z,33.85
2023-04-14T13:41:15.160Z,32.59
2023-04-14T13:43:43.131Z,33.06
2023-04-14T13:46:11.343Z,33.32
2023-04-14T13:48:39.304Z,32.72
2023-04-14T13:51:07.429Z,32.63
2023-04-14T13:53:35.312Z,34.29
2023-04-14T13:56:04.927Z,32.52
2023-04-14T13:58:32.939Z,33.41
2023-04-14T14:01:10.436Z,33.19
2023-04-14T14:03:42.154Z,32.17
2023-04-14T14:06:10.512Z,32.10
2023-04-14T14:08:39.359Z,33.47
2023-04-14T14:11:09.404Z,31.85
2023-04-14T14:13:40.072Z,33.09
2023-04-14T14:16:09.535Z,30.70
2023-04-14T14:18:40.786Z,32.37
2023-04-14T14:21:09.433Z,31.30
2023-04-14T14:23:37.411Z,31.27
2023-04-14T14:26:07.438Z,29.63
2023-04-14T14:28:36.656Z,29.75
2023-04-14T14:31:07.548Z,30.40
2023-04-14T14:33:35.469Z,31.22
2023-04-14T14:36:03.946Z,31.75
2023-04-14T14:38:32.621Z,31.24
2023-04-14T14:41:01.224Z,31.69
2023-04-14T14:43:29.105Z,32.37
2023-04-14T14:45:58.624Z,31.61
2023-04-14T14:48:26.727Z,31.44
2023-04-14T14:50:57.203Z,31.68
2023-04-14T14:53:26.898Z,30.55
2023-04-14T14:55:55.781Z,31.57
2023-04-14T14:58:29.911Z,31.38
2023-04-14T15:01:08.829Z,30.91
2023-04-14T15:03:38.625Z,31.11
2023-04-14T15:06:08.367Z,31.07
2023-04-14T15:08:36.900Z,30.58
2023-04-14T15:11:05.506Z,30.60
2023-04-14T15:13:35.311Z,31.29
2023-04-14T15:16:05.150Z,31.31
2023-04-14T15:18:35.779Z,30.75
2023-04-14T15:21:06.566Z,30.86
2023-04-14T15:23:44.858Z,31.64
2023-04-14T15:26:19.862Z,30.67
2023-04-14T15:28:49.532Z,32.08
2023-04-14T15:31:21.805Z,29.86
2023-04-14T15:33:55.839Z,31.73
2023-04-14T15:36:24.453Z,31.61
2023-04-14T15:38:54.161Z,31.21
2023-04-14T15:41:25.068Z,32.11
2023-04-14T15:44:14.863Z,32.06
2023-04-14T15:46:53.506Z,31.28
2023-04-14T15:49:29.268Z,32.42
2023-04-14T15:52:16.926Z,30.67
2023-04-14T15:54:51.663Z,30.64
2023-04-14T15:57:49.269Z,32.06
2023-04-14T16:00:25.266Z,31.76
2023-04-14T16:03:07.658Z,31.53
2023-04-14T16:05:51.829Z,29.92
2023-04-14T16:08:30.916Z,30.64
2023-04-14T16:11:34.747Z,30.06
2023-04-14T16:14:19.380Z,30.59
2023-04-14T16:16:52.981Z,29.39
2023-04-14T16:19:41.827Z,29.94
2023-04-14T16:22:14.102Z,29.60
2023-04-14T16:24:47.623Z,30.70
2023-04-14T16:27:17.776Z,31.48
2023-04-14T16:29:48.003Z,31.10
2023-04-14T16:32:26.939Z,31.71
2023-04-14T16:35:20.312Z,31.72
2023-04-14T16:38:08.430Z,32.08
2023-04-14T16:40:37.265Z,31.63
2023-04-14T16:43:05.957Z,31.39
2023-04-14T16:45:34.831Z,31.73
2023-04-14T16:48:02.975Z,32.49
2023-04-14T16:50:32.199Z,32.62
2023-04-14T16:53:00.122Z,32.56
2023-04-14T16:55:33.772Z,34.46
2023-04-14T16:58:01.967Z,34.22
2023-04-14T17:00:30.569Z,34.77
2023-04-14T17:02:58.758Z,34.70
2023-04-14T17:05:27.292Z,34.15
2023-04-14T17:07:55.372Z,34.45
2023-04-14T17:10:23.451Z,34.62
2023-04-14T17:12:54.046Z,34.54
2023-04-14T17:15:22.050Z,34.96
2023-04-14T17:17:51.250Z,34.22
2023-04-14T17:20:21.017Z,34.29
2023-04-14T17:22:51.810Z,34.47
2023-04-14T17:25:20.983Z,34.01
2023-04-14T17:27:49.030Z,34.49
2023-04-14T17:30:18.617Z,35.22
2023-04-14T17:32:50.325Z,35.24
2023-04-14T17:35:23.772Z,36.50
2023-04-14T17:38:14.339Z,36.78
2023-04-14T17:41:01.570Z,36.97
2023-04-14T17:43:40.502Z,37.34
2023-04-14T17:46:35.412Z,37.05
2023-04-14T17:49:18.933Z,37.76
2023-04-14T17:52:10.303Z,38.05
2023-04-14T17:54:52.345Z,38.42
2023-04-14T17:57:27.350Z,39.67
2023-04-14T18:00:02.011Z,40.46
2023-04-14T18:02:59.622Z,40.31
2023-04-14T18:05:51.237Z,40.80
2023-04-14T18:08:32.355Z,41.64
2023-04-14T18:11:29.009Z,41.73
2023-04-14T18:13:59.658Z,42.03
2023-04-14T18:16:29.527Z,41.32
2023-04-14T18:19:19.459Z,42.95
2023-04-14T18:22:12.872Z,42.22
2023-04-14T18:24:48.570Z,42.74
2023-04-14T18:29:51.333Z,44.26
2023-04-14T18:32:19.548Z,46.06
2023-04-14T18:34:57.756Z,46.77
2023-04-14T18:37:27.847Z,48.33
2023-04-14T18:39:56.700Z,48.02
2023-04-14T18:42:24.785Z,48.84
2023-04-14T18:44:53.809Z,49.84
2023-04-14T18:47:22.290Z,50.89
2023-04-14T18:49:51.803Z,51.89
2023-04-14T18:52:19.965Z,50.63
2023-04-14T18:54:48.181Z,51.24
2023-04-14T18:57:16.251Z,51.75
2023-04-14T18:59:44.595Z,52.42
2023-04-14T19:02:13.775Z,52.74
2023-04-14T19:04:42.088Z,53.95
2023-04-14T19:07:11.484Z,54.61
2023-04-14T19:09:39.676Z,54.41
2023-04-14T19:12:12.953Z,55.18
2023-04-14T19:14:53.203Z,55.20
2023-04-14T19:17:21.225Z,57.09
2023-04-14T19:19:53.419Z,57.05
2023-04-14T19:22:22.717Z,56.66
2023-04-14T19:24:51.141Z,56.50
2023-04-14T19:27:19.342Z,57.01
2023-04-14T19:29:47.274Z,57.17
2023-04-14T19:32:17.923Z,57.89
2023-04-14T19:34:46.428Z,59.32
2023-04-14T19:37:15.151Z,59.92
2023-04-14T19:39:45.339Z,59.63
2023-04-14T19:42:13.474Z,59.82
2023-04-14T19:44:44.823Z,62.04
2023-04-14T19:47:13.217Z,61.06
2023-04-14T19:49:43.480Z,60.67
2023-04-14T19:52:12.097Z,60.58
2023-04-14T19:54:40.258Z,60.66
2023-04-14T19:57:10.251Z,60.35
2023-04-14T19:59:38.205Z,61.06
2023-04-14T20:02:10.553Z,63.13
2023-04-14T20:04:38.717Z,63.42
2023-04-14T20:07:07.466Z,62.59
2023-04-14T20:09:36.109Z,61.96
2023-04-14T20:12:06.636Z,62.31
2023-04-14T20:14:35.834Z,63.86
2023-04-14T20:17:04.027Z,64.44
2023-04-14T20:19:33.069Z,63.57
2023-04-14T20:22:01.157Z,62.62
2023-04-14T20:24:29.388Z,65.16
2023-04-14T20:26:57.354Z,65.59
2023-04-14T20:29:25.374Z,63.89
2023-04-14T20:31:54.626Z,64.42
2023-04-14T20:34:22.538Z,65.39
2023-04-14T20:36:52.973Z,66.31
2023-04-14T20:39:20.878Z,65.59
2023-04-14T20:41:48.724Z,65.79
2023-04-14T20:44:17.113Z,65.59
2023-04-14T20:46:45.174Z,65.04
2023-04-14T20:49:14.453Z,65.71
2023-04-14T20:51:42.357Z,65.25
2023-04-14T20:54:10.446Z,64.63
2023-04-14T20:56:38.321Z,65.59
2023-04-14T20:59:06.356Z,64.56
2023-04-14T21:01:34.388Z,64.07
2023-04-14T21:04:02.612Z,64.26
2023-04-14T21:06:33.122Z,64.43
2023-04-14T21:09:02.067Z,64.22
2023-04-14T21:11:31.871Z,64.11
2023-04-14T21:15:31.116Z,64.47
2023-04-14T21:16:48.564Z,64.61
2023-04-14T21:19:16.449Z,63.41
2023-04-14T21:21:45.855Z,63.61
2023-04-14T21:24:16.013Z,62.93
2023-04-14T21:26:43.916Z,63.25
2023-04-14T21:29:11.875Z,62.73
2023-04-14T21:31:40.123Z,63.14
2023-04-14T21:34:08.117Z,63.58
2023-04-14T21:36:36.258Z,63.47
2023-04-14T21:39:05.648Z,63.75
2023-04-14T21:41:33.848Z,63.21
2023-04-14T21:44:01.898Z,63.50
2023-04-14T21:46:30.454Z,63.24
2023-04-14T21:48:58.395Z,63.76
2023-04-14T21:51:27.582Z,63.92
2023-04-14T21:53:55.852Z,63.74
2023-04-14T21:56:25.041Z,63.68
2023-04-14T21:58:52.944Z,64.07
2023-04-14T22:01:20.920Z,64.75
2023-04-14T22:03:49.954Z,65.07
2023-04-14T22:06:19.226Z,65.76
2023-04-14T22:08:47.187Z,65.84
2023-04-14T22:11:15.117Z,67.97
2023-04-14T22:13:44.628Z,67.19
2023-04-14T22:16:12.482Z,66.20
2023-04-14T22:18:42.964Z,65.79
2023-04-14T22:21:12.066Z,66.68
2023-04-14T22:23:40.593Z,67.53
2023-04-14T22:26:09.026Z,68.88
2023-04-14T22:28:37.130Z,68.62
2023-04-14T22:31:07.900Z,68.93
2023-04-14T22:33:36.069Z,67.98
2023-04-14T22:36:06.181Z,68.74
2023-04-14T22:38:34.747Z,68.12
2023-04-14T22:41:02.774Z,67.98
2023-04-14T22:43:30.854Z,68.26
2023-04-14T22:45:58.782Z,68.79
2023-04-14T22:48:28.096Z,68.72
2023-04-14T22:50:56.176Z,68.46
2023-04-14T22:53:24.056Z,67.70
2023-04-14T22:55:52.028Z,67.66
2023-04-14T22:58:21.811Z,68.16
2023-04-14T23:00:49.674Z,71.14
2023-04-14T23:03:17.654Z,71.23
2023-04-14T23:05:47.129Z,70.27
2023-04-14T23:08:15.648Z,69.26
2023-04-14T23:10:43.605Z,70.18
2023-04-14T23:13:11.555Z,69.97
2023-04-14T23:15:39.507Z,69.73
2023-04-14T23:18:07.477Z,69.78
2023-04-14T23:20:35.361Z,68.74
2023-04-14T23:23:12.005Z,68.83
2023-04-14T23:25:40.067Z,69.03
2023-04-14T23:28:08.301Z,70.04
2023-04-14T23:30:36.803Z,70.40
2023-04-14T23:33:04.781Z,72.53
2023-04-14T23:35:32.809Z,73.05
2023-04-14T23:38:02.438Z,74.91
2023-04-14T23:40:32.728Z,75.95
2023-04-14T23:43:01.229Z,76.54
2023-04-14T23:45:34.053Z,74.58
2023-04-14T23:48:02.025Z,77.04
2023-04-14T23:51:00.342Z,76.27
2023-04-14T23:53:18.103Z,74.16
2023-04-14T23:55:48.069Z,73.43
2023-04-14T23:58:26.183Z,72.60
